Time;durP1;ratioP1;P1;durP2;ratioP2;P2;SDS_P1;SDS_P2;PMS_P1;PMS_P2;Temp;Humidity;BMP_temperature;BMP_pressure;BME280_temperature;BME280_humidity;BME280_pressure;Samples;Min_cycle;Max_cycle;Signal;HPM_P1;HPM_P2
2021/10/07 00:02:15;;;;;;;15.15;9.52;;;;;;;4.86;66.09;101738.69;5070460;28;20561;-66
2021/10/07 00:04:41;;;;;;;16.92;9.82;;;;;;;4.83;66.40;101730.25;5071983;28;20040;-66
2021/10/07 00:07:06;;;;;;;17.73;9.65;;;;;;;4.80;66.41;101734.00;5071700;28;20041;-66
2021/10/07 00:09:33;;;;;;;18.30;9.65;;;;;;;4.77;66.74;101732.47;5071636;28;20083;-67
2021/10/07 00:11:59;;;;;;;19.67;9.93;;;;;;;4.70;66.40;101720.88;5071618;28;20102;-66
2021/10/07 00:14:26;;;;;;;15.25;9.68;;;;;;;4.70;67.45;101733.19;5070257;28;20040;-66
2021/10/07 00:16:52;;;;;;;16.67;9.23;;;;;;;4.67;67.10;101723.78;5071613;28;20047;-66
2021/10/07 00:19:18;;;;;;;21.35;9.70;;;;;;;4.65;67.02;101722.28;5070183;28;20456;-66
2021/10/07 00:21:43;;;;;;;19.40;9.93;;;;;;;4.63;67.10;101738.19;5071331;28;20125;-66
2021/10/07 00:24:10;;;;;;;18.17;9.73;;;;;;;4.60;67.33;101738.47;5071310;28;20063;-68
2021/10/07 00:26:38;;;;;;;17.98;9.68;;;;;;;4.59;66.69;101739.44;5071393;28;20032;-66
2021/10/07 00:31:50;;;;;;;22.73;10.48;;;;;;;4.55;67.05;101730.16;5069513;28;20392;-66
2021/10/07 00:39:10;;;;;;;19.65;10.15;;;;;;;4.51;66.61;101728.78;5071209;28;20087;-66
2021/10/07 00:41:42;;;;;;;19.25;10.43;;;;;;;4.51;66.60;101742.75;5069823;28;20452;-66
2021/10/07 00:44:09;;;;;;;20.13;10.82;;;;;;;4.52;66.36;101743.56;5071215;28;20178;-66
2021/10/07 00:46:47;;;;;;;18.50;11.15;;;;;;;4.52;66.48;101756.72;5069833;28;20588;-67
2021/10/07 00:49:13;;;;;;;20.73;11.48;;;;;;;4.49;66.75;101749.94;5070112;28;20134;-66
2021/10/07 00:51:39;;;;;;;18.00;10.57;;;;;;;4.48;66.28;101750.09;5069912;28;20036;-67
2021/10/07 00:54:05;;;;;;;20.52;11.52;;;;;;;4.46;66.59;101744.13;5071106;28;20502;-67
2021/10/07 00:56:30;;;;;;;23.20;11.30;;;;;;;4.44;66.43;101743.44;5053338;28;20402;-67
2021/10/07 00:58:57;;;;;;;15.25;9.90;;;;;;;4.44;66.65;101748.69;5053107;28;20416;-66
2021/10/07 01:01:22;;;;;;;18.52;10.63;;;;;;;4.40;66.59;101749.94;5069806;28;20512;-66
2021/10/07 01:03:49;;;;;;;19.90;10.18;;;;;;;4.37;66.40;101747.59;5071070;28;20087;-66
2021/10/07 01:06:14;;;;;;;19.73;10.30;;;;;;;4.38;66.69;101752.69;5069714;28;20486;-67
2021/10/07 01:08:40;;;;;;;30.38;12.70;;;;;;;4.38;66.62;101759.75;5069484;28;20055;-66
2021/10/07 01:11:06;;;;;;;22.75;11.55;;;;;;;4.33;66.79;101755.75;5069646;28;20052;-67
2021/10/07 01:13:37;;;;;;;20.58;10.05;;;;;;;4.32;66.54;101755.88;5069486;28;20134;-67
2021/10/07 01:16:04;;;;;;;21.10;10.93;;;;;;;4.31;67.38;101760.31;5070875;28;20041;-66
2021/10/07 01:18:29;;;;;;;24.88;10.20;;;;;;;4.25;67.83;101763.50;5069439;28;20044;-67
2021/10/07 01:20:55;;;;;;;23.58;10.20;;;;;;;4.24;67.53;101766.25;5069607;28;20047;-67
2021/10/07 01:23:22;;;;;;;23.33;11.68;;;;;;;4.20;67.36;101765.69;5058473;28;20510;-66
2021/10/07 01:25:47;;;;;;;32.22;10.77;;;;;;;4.17;67.81;101771.22;5050817;28;20037;-66
2021/10/07 01:28:13;;;;;;;25.30;11.30;;;;;;;4.13;68.24;101777.72;5058958;28;20501;-67
2021/10/07 01:30:39;;;;;;;26.23;12.25;;;;;;;4.12;68.36;101776.06;5070741;28;20033;-67
2021/10/07 01:33:05;;;;;;;26.20;10.77;;;;;;;4.08;68.82;101772.03;5069235;28;20044;-66
2021/10/07 01:35:31;;;;;;;43.58;11.48;;;;;;;4.05;69.00;101769.69;5070929;28;20127;-67
2021/10/07 01:37:57;;;;;;;24.58;10.52;;;;;;;4.04;69.13;101773.28;5070894;28;20048;-67
2021/10/07 01:40:23;;;;;;;23.17;11.30;;;;;;;4.03;68.26;101775.09;5069439;28;20086;-67
2021/10/07 01:42:49;;;;;;;24.20;10.40;;;;;;;4.01;68.49;101779.63;5072735;28;20517;-66
2021/10/07 01:45:15;;;;;;;22.58;10.80;;;;;;;3.98;68.95;101779.09;5073054;28;20056;-67
2021/10/07 01:47:41;;;;;;;25.30;10.02;;;;;;;3.92;68.30;101777.00;5073075;28;20067;-66
2021/10/07 01:50:09;;;;;;;24.85;11.40;;;;;;;3.98;68.73;101789.59;5074020;28;20080;-68
2021/10/07 01:52:37;;;;;;;23.38;10.95;;;;;;;3.95;68.42;101784.59;5074534;28;20055;-67
2021/10/07 01:55:04;;;;;;;20.50;10.52;;;;;;;3.92;68.84;101790.94;5052712;28;20127;-67
2021/10/07 01:57:30;;;;;;;16.98;9.23;;;;;;;3.90;68.97;101786.78;5052985;28;20486;-67
2021/10/07 01:59:56;;;;;;;19.13;9.95;;;;;;;3.91;68.98;101793.69;5068333;28;20052;-67
2021/10/07 02:02:21;;;;;;;26.10;11.18;;;;;;;3.86;68.74;101792.31;5073936;28;20482;-67
2021/10/07 02:04:47;;;;;;;20.77;10.35;;;;;;;3.83;68.91;101787.34;5073953;28;20079;-66
2021/10/07 02:07:13;;;;;;;21.17;10.50;;;;;;;3.80;68.77;101786.78;5072821;28;20490;-66
2021/10/07 02:09:39;;;;;;;23.70;10.00;;;;;;;3.81;69.61;101801.53;5052456;28;20090;-66
2021/10/07 02:12:05;;;;;;;18.80;10.32;;;;;;;3.80;69.26;101786.78;5054131;28;20048;-66
2021/10/07 02:14:31;;;;;;;20.48;9.85;;;;;;;3.80;69.02;101799.91;5059361;28;20033;-67
2021/10/07 02:16:57;;;;;;;19.33;10.82;;;;;;;3.78;69.30;101797.41;5072394;28;20571;-67
2021/10/07 02:19:23;;;;;;;22.25;10.35;;;;;;;3.74;69.60;101796.00;5073491;28;20036;-66
2021/10/07 02:21:49;;;;;;;23.65;11.63;;;;;;;3.80;69.89;101795.47;5072430;28;20459;-66
2021/10/07 02:24:15;;;;;;;22.25;10.43;;;;;;;3.79;70.07;101795.59;5052440;28;20068;-66
2021/10/07 02:26:41;;;;;;;18.48;10.25;;;;;;;3.79;69.89;101799.03;5052430;28;20079;-66
2021/10/07 02:29:07;;;;;;;21.45;10.27;;;;;;;3.77;70.06;101798.38;5055530;28;20061;-66
2021/10/07 02:31:33;;;;;;;21.67;11.73;;;;;;;3.77;69.81;101790.50;5072344;28;20528;-66
2021/10/07 02:33:59;;;;;;;22.60;11.07;;;;;;;3.77;70.35;101795.75;5073304;28;20143;-66
2021/10/07 02:36:24;;;;;;;22.58;11.45;;;;;;;3.77;70.38;101801.00;5073486;28;20040;-66
2021/10/07 02:38:51;;;;;;;22.35;11.35;;;;;;;3.73;70.32;101796.13;5073269;28;20136;-66
2021/10/07 02:41:17;;;;;;;19.30;10.95;;;;;;;3.75;69.75;101796.84;5055401;28;20059;-67
2021/10/07 02:43:43;;;;;;;18.48;10.90;;;;;;;3.74;70.22;101806.50;5055301;28;20037;-67
2021/10/07 02:46:10;;;;;;;28.90;10.90;;;;;;;3.74;70.04;101806.50;5072019;28;20115;-66
2021/10/07 02:48:36;;;;;;;22.80;11.70;;;;;;;3.73;70.27;101812.69;5071825;28;20086;-67
2021/10/07 02:51:02;;;;;;;19.92;10.63;;;;;;;3.73;70.27;101811.88;5072870;28;20178;-67
2021/10/07 02:53:30;;;;;;;21.38;11.30;;;;;;;3.74;69.85;101810.94;5072466;28;20529;-66
2021/10/07 02:55:57;;;;;;;20.50;10.32;;;;;;;3.71;69.70;101804.16;5071453;28;20044;-66
2021/10/07 02:58:23;;;;;;;22.65;11.65;;;;;;;3.69;69.71;101810.50;5054946;28;20135;-66
2021/10/07 03:00:49;;;;;;;21.05;12.80;;;;;;;3.69;69.71;101802.63;5072633;28;20190;-66
2021/10/07 03:03:14;;;;;;;19.85;11.63;;;;;;;3.68;69.87;101799.16;5072840;28;20063;-66
2021/10/07 03:05:40;;;;;;;23.15;11.20;;;;;;;3.67;69.81;101805.34;5071315;28;20040;-66
2021/10/07 03:08:06;;;;;;;21.90;10.75;;;;;;;3.66;69.56;101802.88;5071419;28;20052;-66
2021/10/07 03:10:32;;;;;;;23.25;12.18;;;;;;;3.63;70.19;101804.81;5071246;28;20414;-66
2021/10/07 03:12:57;;;;;;;25.33;11.50;;;;;;;3.60;69.66;101797.19;5073032;28;20083;-66
2021/10/07 03:15:24;;;;;;;21.55;11.40;;;;;;;3.58;70.53;101806.16;5071139;28;20040;-67
2021/10/07 03:17:49;;;;;;;25.85;13.02;;;;;;;3.51;70.28;101797.16;5073027;28;20490;-67
2021/10/07 03:20:15;;;;;;;22.20;11.85;;;;;;;3.47;71.06;101803.63;5072101;28;20059;-66
2021/10/07 03:22:41;;;;;;;22.02;12.30;;;;;;;3.45;70.38;101793.28;5071485;28;20040;-66
2021/10/07 03:25:07;;;;;;;21.30;11.75;;;;;;;3.44;70.55;101794.22;5072392;28;20049;-67
2021/10/07 03:27:34;;;;;;;23.40;11.45;;;;;;;3.44;71.00;101802.09;5071258;28;20044;-66
2021/10/07 03:30:00;;;;;;;27.95;12.07;;;;;;;3.41;71.14;101803.22;5071919;28;20132;-67
2021/10/07 03:32:26;;;;;;;21.20;11.70;;;;;;;3.39;70.81;101805.13;5072157;28;20123;-66
2021/10/07 03:34:51;;;;;;;19.65;12.63;;;;;;;3.34;71.32;101801.22;5050723;28;20090;-68
2021/10/07 03:37:17;;;;;;;21.98;13.48;;;;;;;3.26;71.59;101803.66;5052583;28;20498;-68
2021/10/07 03:39:43;;;;;;;31.75;15.18;;;;;;;3.22;72.16;101804.91;5058964;28;20593;-65
2021/10/07 03:42:09;;;;;;;25.70;13.27;;;;;;;3.20;72.01;101802.41;5054335;28;20069;-66
2021/10/07 03:44:35;;;;;;;23.40;12.40;;;;;;;3.19;72.41;101803.38;5050732;28;20522;-66
2021/10/07 03:47:01;;;;;;;24.17;13.00;;;;;;;3.18;71.71;101802.53;5051935;28;20542;-67
2021/10/07 03:49:27;;;;;;;19.05;10.60;;;;;;;3.23;71.53;101806.56;5056711;28;20046;-67
2021/10/07 03:51:53;;;;;;;26.42;12.63;;;;;;;3.22;71.03;101810.97;5072107;28;20051;-67
2021/10/07 03:54:18;;;;;;;22.85;11.65;;;;;;;3.28;71.26;101813.06;5070329;28;20043;-66
2021/10/07 03:56:44;;;;;;;32.80;11.55;;;;;;;3.29;70.90;101804.22;5070850;28;20049;-67
2021/10/07 03:59:10;;;;;;;22.55;13.32;;;;;;;3.34;70.70;101812.53;5071517;28;20091;-67
2021/10/07 04:01:37;;;;;;;20.00;11.52;;;;;;;3.31;70.55;101798.88;5071943;28;20044;-67
2021/10/07 04:04:03;;;;;;;20.65;11.05;;;;;;;3.38;71.40;101807.88;5070257;28;20123;-67
2021/10/07 04:06:28;;;;;;;30.63;11.57;;;;;;;3.45;70.85;101806.41;5052993;28;20044;-67
2021/10/07 04:08:54;;;;;;;20.90;11.10;;;;;;;3.49;70.67;101802.53;5071453;28;20143;-67
2021/10/07 04:11:20;;;;;;;19.77;11.73;;;;;;;3.49;70.39;101796.47;5053602;28;20048;-67
2021/10/07 04:13:47;;;;;;;23.15;12.05;;;;;;;3.46;70.02;101794.09;5071543;28;20045;-66
2021/10/07 04:16:14;;;;;;;24.92;12.55;;;;;;;3.46;70.36;101796.72;5070100;28;20486;-67
2021/10/07 04:18:40;;;;;;;24.63;11.85;;;;;;;3.50;70.51;101792.88;5070146;28;20472;-66
2021/10/07 04:21:07;;;;;;;25.65;11.65;;;;;;;3.56;70.96;101797.59;5071412;28;20139;-66
2021/10/07 04:23:32;;;;;;;23.25;12.18;;;;;;;3.59;70.21;101798.19;5070129;28;20041;-67
2021/10/07 04:25:58;;;;;;;24.40;12.23;;;;;;;3.61;70.41;101801.47;5052913;28;20114;-66
2021/10/07 04:28:25;;;;;;;28.48;13.43;;;;;;;3.59;69.70;101800.78;5071299;28;20049;-66
2021/10/07 04:30:50;;;;;;;23.63;12.68;;;;;;;3.60;70.37;101801.63;5071189;28;20498;-67
2021/10/07 04:33:16;;;;;;;28.13;13.57;;;;;;;3.68;71.06;101801.78;5071304;28;20098;-66
2021/10/07 04:35:42;;;;;;;28.20;13.45;;;;;;;3.77;69.85;101802.78;5049766;28;20041;-67
2021/10/07 04:38:09;;;;;;;26.35;13.10;;;;;;;3.81;70.05;101798.91;5051224;28;20139;-66
2021/10/07 04:40:36;;;;;;;26.30;13.38;;;;;;;3.83;70.16;101805.69;5060936;28;20059;-67
2021/10/07 04:43:02;;;;;;;34.22;14.50;;;;;;;3.84;69.66;101798.66;5071089;28;20143;-67
2021/10/07 04:45:28;;;;;;;27.45;13.68;;;;;;;3.86;69.50;101810.69;5070651;28;20036;-67
2021/10/07 04:47:54;;;;;;;33.15;14.00;;;;;;;3.92;69.29;101804.06;5071547;28;20486;-67
2021/10/07 04:50:20;;;;;;;35.65;16.63;;;;;;;3.91;68.79;101802.38;5069564;28;20036;-68
2021/10/07 04:52:46;;;;;;;30.48;14.52;;;;;;;3.94;69.10;101799.53;5069953;28;20573;-67
2021/10/07 04:55:12;;;;;;;30.27;15.50;;;;;;;3.96;68.83;101807.25;5070852;28;20501;-68
2021/10/07 04:57:38;;;;;;;34.03;16.63;;;;;;;3.99;69.10;101802.56;5070096;28;20044;-66
2021/10/07 05:00:05;;;;;;;34.20;16.90;;;;;;;3.99;68.60;101796.47;5069832;28;20127;-67
2021/10/07 05:02:35;;;;;;;34.55;18.00;;;;;;;4.03;68.79;101803.09;5071215;28;20115;-66
2021/10/07 05:05:01;;;;;;;28.27;16.73;;;;;;;3.99;68.90;101791.22;5070822;28;20079;-68
2021/10/07 05:07:27;;;;;;;36.47;17.48;;;;;;;3.99;68.44;101804.34;5069661;28;20083;-67
2021/10/07 05:09:53;;;;;;;32.72;17.05;;;;;;;4.03;68.49;101797.84;5070423;28;20110;-67
2021/10/07 05:12:18;;;;;;;35.50;16.67;;;;;;;4.04;68.81;101800.34;5071171;28;20041;-67
2021/10/07 05:14:44;;;;;;;41.92;16.65;;;;;;;4.05;68.86;101799.38;5070770;28;20044;-67
2021/10/07 05:17:10;;;;;;;34.22;16.45;;;;;;;4.06;69.13;101801.06;5071804;28;20123;-67
2021/10/07 05:19:36;;;;;;;34.75;16.92;;;;;;;4.09;69.23;101794.72;5074608;28;20559;-67
2021/10/07 05:22:02;;;;;;;32.72;16.52;;;;;;;4.17;68.86;101794.00;5074266;28;20406;-67
2021/10/07 05:24:29;;;;;;;36.50;16.33;;;;;;;4.22;69.18;101789.19;5072340;28;20551;-67
2021/10/07 05:26:55;;;;;;;29.35;17.17;;;;;;;4.29;69.01;101791.16;5074216;28;20482;-67
2021/10/07 05:29:21;;;;;;;30.33;15.52;;;;;;;4.36;68.28;101796.66;5074299;28;20121;-67
2021/10/07 05:31:48;;;;;;;71.00;28.40;;;;;;;4.44;68.73;101795.97;5074365;28;20032;-67
2021/10/07 05:34:13;;;;;;;59.92;31.63;;;;;;;4.48;69.03;101785.06;5072979;28;20110;-67
2021/10/07 05:36:39;;;;;;;43.67;20.23;;;;;;;4.52;67.84;101788.22;5072716;28;20040;-67
2021/10/07 05:39:05;;;;;;;56.05;27.33;;;;;;;4.59;68.09;101783.25;5074444;28;20459;-67
2021/10/07 05:41:31;;;;;;;43.45;22.45;;;;;;;4.67;68.17;101788.63;5074159;28;20040;-67
2021/10/07 05:43:57;;;;;;;35.90;18.02;;;;;;;4.71;67.13;101782.16;5073020;28;20052;-66
2021/10/07 05:46:23;;;;;;;34.45;18.67;;;;;;;4.75;66.76;101784.34;5069715;28;20048;-67
2021/10/07 05:48:49;;;;;;;33.80;16.70;;;;;;;4.83;66.59;101788.91;5053920;28;20041;-66
2021/10/07 05:51:15;;;;;;;37.47;16.65;;;;;;;4.90;66.62;101789.16;5055397;28;20452;-66
2021/10/07 05:53:40;;;;;;;30.27;17.17;;;;;;;4.97;65.68;101788.47;5074220;28;20044;-67
2021/10/07 05:56:06;;;;;;;30.83;16.13;;;;;;;5.00;65.87;101793.44;5073919;28;20525;-66
2021/10/07 05:58:33;;;;;;;33.00;16.70;;;;;;;5.08;66.19;101794.50;5072450;28;20052;-67
2021/10/07 06:00:59;;;;;;;31.75;15.77;;;;;;;5.15;66.00;101791.19;5055613;28;20048;-67
2021/10/07 06:03:24;;;;;;;37.63;17.27;;;;;;;5.22;65.62;101787.00;5052165;28;20045;-67
2021/10/07 06:05:50;;;;;;;34.78;17.02;;;;;;;5.29;66.99;101792.50;5053449;28;20095;-67
2021/10/07 06:08:16;;;;;;;45.35;19.05;;;;;;;5.38;67.38;101796.94;5067673;28;20052;-67
2021/10/07 06:10:42;;;;;;;38.85;18.50;;;;;;;5.47;67.48;101796.06;5072224;28;20502;-66
2021/10/07 06:13:08;;;;;;;45.60;19.55;;;;;;;5.56;66.57;101796.13;5072300;28;20509;-66
2021/10/07 06:15:33;;;;;;;42.85;17.50;;;;;;;5.66;66.12;101796.94;5072551;28;20119;-67
2021/10/07 06:18:00;;;;;;;32.63;17.58;;;;;;;5.74;65.88;101799.66;5073641;28;20040;-66
2021/10/07 06:22:55;;;;;;;39.95;18.00;;;;;;;5.92;65.85;101797.91;5073728;28;20032;-67
2021/10/07 06:25:21;;;;;;;41.47;17.25;;;;;;;5.98;65.16;101799.16;5073748;28;20485;-67
2021/10/07 06:27:50;;;;;;;35.50;17.63;;;;;;;6.07;65.37;101805.31;5073520;28;20040;-66
2021/10/07 06:30:17;;;;;;;28.58;16.85;;;;;;;6.11;64.50;101799.59;5071164;28;20052;-66
2021/10/07 06:32:44;;;;;;;33.40;17.40;;;;;;;6.19;63.58;101803.31;5073532;28;20444;-66
2021/10/07 06:35:10;;;;;;;32.13;16.42;;;;;;;6.25;63.85;101805.34;5073280;28;20064;-67
2021/10/07 06:37:36;;;;;;;37.92;16.42;;;;;;;6.31;63.28;101800.28;5051819;28;20630;-66
2021/10/07 06:40:04;;;;;;;33.47;15.90;;;;;;;6.40;62.65;101801.19;5053596;28;20053;-67
2021/10/07 06:42:30;;;;;;;31.42;15.20;;;;;;;6.50;61.62;101795.84;5057054;28;20032;-66
2021/10/07 06:44:55;;;;;;;32.70;14.00;;;;;;;6.54;60.11;101799.84;5073150;28;20539;-67
2021/10/07 06:47:21;;;;;;;25.13;13.60;;;;;;;6.64;59.38;101799.75;5073145;28;20093;-67
2021/10/07 06:49:47;;;;;;;37.15;14.43;;;;;;;6.73;58.99;101798.84;5072824;28;20071;-67
2021/10/07 06:52:13;;;;;;;23.02;12.02;;;;;;;6.80;57.97;101792.81;5072999;28;20089;-66
2021/10/07 06:54:39;;;;;;;25.77;13.27;;;;;;;6.85;57.47;101794.16;5073189;28;20052;-69
2021/10/07 06:57:04;;;;;;;19.13;11.00;;;;;;;6.89;56.61;101795.50;5072620;28;20139;-66
2021/10/07 06:59:30;;;;;;;21.98;11.35;;;;;;;6.96;55.78;101800.00;5072910;28;20055;-68
2021/10/07 07:01:56;;;;;;;26.65;11.15;;;;;;;7.03;56.18;101806.31;5072838;28;20040;-66
2021/10/07 07:04:22;;;;;;;30.80;12.38;;;;;;;7.11;55.76;101800.25;5054754;28;20048;-66
2021/10/07 07:06:49;;;;;;;18.95;11.18;;;;;;;7.16;55.08;101805.91;5072624;28;20102;-66
2021/10/07 07:09:15;;;;;;;21.30;10.38;;;;;;;7.21;54.12;101797.53;5072536;28;20064;-66
2021/10/07 07:11:40;;;;;;;20.15;10.50;;;;;;;7.30;53.81;101799.22;5073048;28;20048;-66
2021/10/07 07:14:06;;;;;;;19.58;9.90;;;;;;;7.17;53.84;101770.63;5051096;28;20502;-66
2021/10/07 07:16:33;;;;;;;21.13;9.90;;;;;;;7.41;53.42;101795.47;5051333;28;20102;-66
2021/10/07 07:19:00;;;;;;;14.65;8.27;;;;;;;7.47;51.87;101786.91;5070827;28;20048;-66
2021/10/07 07:21:29;;;;;;;21.00;8.80;;;;;;;7.58;50.77;101799.84;5054358;28;20091;-66
2021/10/07 07:23:55;;;;;;;17.37;8.57;;;;;;;7.64;51.17;101790.47;5072296;28;20525;-67
2021/10/07 07:26:21;;;;;;;17.33;8.10;;;;;;;7.69;50.88;101790.81;5072516;28;20306;-67
2021/10/07 07:28:47;;;;;;;16.00;8.70;;;;;;;7.77;50.46;101800.59;5063208;28;20053;-66
2021/10/07 07:31:12;;;;;;;17.33;8.63;;;;;;;7.84;50.34;101802.41;5052372;28;20075;-67
2021/10/07 07:33:38;;;;;;;14.80;8.38;;;;;;;7.85;49.83;101798.81;5066583;28;20049;-66
2021/10/07 07:36:04;;;;;;;13.80;7.63;;;;;;;7.98;49.29;101798.34;5072146;28;20040;-67
2021/10/07 07:38:30;;;;;;;15.65;8.02;;;;;;;8.02;48.80;101797.03;5070580;28;20048;-67
2021/10/07 07:40:57;;;;;;;15.00;8.75;;;;;;;8.06;49.06;101790.44;5071939;28;20044;-66
2021/10/07 07:43:24;;;;;;;11.38;7.38;;;;;;;8.09;48.33;101790.13;5070276;28;20418;-66
2021/10/07 07:45:51;;;;;;;18.90;7.95;;;;;;;8.18;47.83;101790.97;5071704;28;20051;-66
2021/10/07 07:48:18;;;;;;;17.30;7.85;;;;;;;8.24;47.19;101792.94;5071743;28;20047;-66
2021/10/07 07:50:44;;;;;;;12.98;8.38;;;;;;;8.30;47.47;101788.84;5070904;28;20516;-67
2021/10/07 07:53:12;;;;;;;18.77;7.70;;;;;;;8.32;47.32;101798.22;5071562;28;20122;-66
2021/10/07 07:55:39;;;;;;;15.15;7.00;;;;;;;8.35;46.98;101794.44;5070354;28;20044;-67
2021/10/07 07:58:05;;;;;;;13.32;6.72;;;;;;;8.37;46.10;101795.91;5071701;28;20449;-66
2021/10/07 08:00:30;;;;;;;10.95;7.78;;;;;;;8.42;45.83;101792.84;5070476;28;20360;-68
2021/10/07 08:02:56;;;;;;;13.13;7.38;;;;;;;8.47;45.41;101795.81;5070317;28;20090;-66
2021/10/07 08:05:22;;;;;;;15.70;8.70;;;;;;;8.53;45.21;101796.94;5070760;28;20498;-68
2021/10/07 08:07:48;;;;;;;10.80;7.53;;;;;;;8.57;46.41;101793.81;5071677;28;20071;-66
2021/10/07 08:10:15;;;;;;;16.55;7.97;;;;;;;8.61;46.01;101795.13;5071235;28;20092;-67
2021/10/07 08:12:40;;;;;;;16.25;8.20;;;;;;;8.66;45.60;101802.59;5071777;28;20127;-66
2021/10/07 08:15:09;;;;;;;12.80;6.13;;;;;;;8.70;44.47;101803.06;5070156;28;20503;-67
2021/10/07 08:17:36;;;;;;;14.40;7.07;;;;;;;8.74;43.98;101794.66;5071271;28;20036;-66
2021/10/07 08:20:04;;;;;;;13.80;7.70;;;;;;;8.80;44.10;101796.63;5070037;28;20528;-67
2021/10/07 08:22:30;;;;;;;14.25;7.93;;;;;;;8.83;44.79;101796.28;5033373;28;20123;-66
2021/10/07 08:24:56;;;;;;;14.15;7.65;;;;;;;8.83;44.52;101785.72;5050063;28;20554;-68
2021/10/07 08:27:23;;;;;;;14.88;7.95;;;;;;;8.89;44.77;101788.69;5055041;28;20032;-67
2021/10/07 08:29:49;;;;;;;11.68;7.28;;;;;;;8.93;44.40;101792.66;5071365;28;20517;-67
2021/10/07 08:32:15;;;;;;;12.98;8.13;;;;;;;8.95;44.48;101796.78;5071360;28;20050;-66
2021/10/07 08:34:40;;;;;;;15.27;8.15;;;;;;;9.00;44.86;101794.47;5071367;28;20049;-66
2021/10/07 08:37:06;;;;;;;15.73;8.20;;;;;;;9.03;44.86;101793.28;5070252;28;20383;-67
2021/10/07 08:39:33;;;;;;;16.23;8.85;;;;;;;9.05;45.40;101792.13;5069720;28;20040;-67
2021/10/07 08:42:00;;;;;;;17.73;10.25;;;;;;;9.08;44.77;101785.66;5069885;28;20036;-67
2021/10/07 08:44:25;;;;;;;22.35;9.55;;;;;;;9.13;45.05;101787.81;5071106;28;20114;-67
2021/10/07 08:46:53;;;;;;;18.40;9.35;;;;;;;9.16;44.73;101779.53;5053237;28;20494;-66
2021/10/07 08:49:24;;;;;;;16.00;9.65;;;;;;;9.17;44.33;101784.66;5070803;28;20045;-67
2021/10/07 08:51:51;;;;;;;20.25;9.90;;;;;;;9.20;45.04;101781.66;5070336;28;20040;-67
2021/10/07 08:54:17;;;;;;;15.25;8.80;;;;;;;9.23;45.34;101783.16;5073691;28;20528;-67
2021/10/07 08:56:43;;;;;;;14.60;9.05;;;;;;;9.27;45.55;101781.84;5073945;28;20049;-67
2021/10/07 08:59:09;;;;;;;16.35;9.02;;;;;;;9.32;44.83;101780.31;5073443;28;20044;-67
2021/10/07 09:01:43;;;;;;;14.70;9.07;;;;;;;9.35;45.45;101783.59;5073626;28;20082;-67
2021/10/07 09:04:19;;;;;;;20.05;9.43;;;;;;;9.37;45.32;101786.91;5073509;28;20076;-66
2021/10/07 09:06:52;;;;;;;17.83;9.70;;;;;;;9.38;45.08;101785.91;5075191;28;20052;-67
2021/10/07 09:09:19;;;;;;;18.27;10.07;;;;;;;9.41;44.98;101782.94;5074459;28;20060;-67
2021/10/07 09:11:53;;;;;;;16.73;9.60;;;;;;;9.41;44.14;101781.13;5057041;28;20127;-67
2021/10/07 09:14:26;;;;;;;21.65;9.85;;;;;;;9.44;43.93;101775.50;5074790;28;20044;-67
2021/10/07 09:16:53;;;;;;;16.75;9.68;;;;;;;9.48;44.24;101776.78;5073853;28;20072;-67
2021/10/07 09:19:22;;;;;;;21.95;9.43;;;;;;;9.53;44.03;101782.41;5074480;28;20046;-67
2021/10/07 09:21:50;;;;;;;19.35;10.25;;;;;;;9.58;42.95;101783.69;5074858;28;20090;-67
2021/10/07 09:24:25;;;;;;;17.35;10.25;;;;;;;9.60;43.33;101782.53;5073334;28;20414;-67
2021/10/07 09:26:51;;;;;;;18.60;10.70;;;;;;;9.59;43.48;101777.41;5074903;28;20498;-66
2021/10/07 09:29:17;;;;;;;25.08;11.35;;;;;;;9.63;43.88;101781.38;5074309;28;20158;-67
2021/10/07 09:31:43;;;;;;;22.85;10.68;;;;;;;9.64;43.87;101780.34;5073371;28;20448;-67
2021/10/07 09:34:08;;;;;;;20.70;10.60;;;;;;;9.72;43.67;101781.16;5074435;28;20113;-66
2021/10/07 09:36:35;;;;;;;24.70;10.48;;;;;;;9.76;44.21;101776.31;5073338;28;20036;-67
2021/10/07 09:39:02;;;;;;;19.00;11.02;;;;;;;9.76;44.04;101774.53;5073128;28;20106;-67
2021/10/07 09:41:30;;;;;;;21.88;10.10;;;;;;;9.81;42.92;101778.47;5072799;28;20044;-67
2021/10/07 09:43:59;;;;;;;16.20;9.32;;;;;;;9.84;42.82;101778.13;5073071;28;20048;-66
2021/10/07 09:46:42;;;;;;;17.17;8.77;;;;;;;9.88;41.74;101764.34;5072922;28;20045;-67
2021/10/07 09:49:15;;;;;;;17.73;9.52;;;;;;;9.92;41.69;101763.00;5072819;28;20057;-67
2021/10/07 09:51:48;;;;;;;18.55;8.70;;;;;;;9.95;41.97;101756.53;5074008;28;20049;-67
2021/10/07 09:54:29;;;;;;;16.95;9.23;;;;;;;9.96;41.97;101755.53;5073737;28;20044;-67
2021/10/07 09:57:00;;;;;;;20.33;9.60;;;;;;;9.95;40.33;101759.19;5072610;28;20509;-67
2021/10/07 09:59:27;;;;;;;16.17;8.52;;;;;;;9.99;40.76;101758.63;5073064;28;20040;-67
2021/10/07 10:01:55;;;;;;;20.92;9.30;;;;;;;10.05;40.22;101764.25;5072551;28;20044;-67
2021/10/07 10:04:22;;;;;;;11.63;8.13;;;;;;;10.08;39.58;101758.59;5073757;28;20106;-67
2021/10/07 10:06:48;;;;;;;20.40;8.85;;;;;;;10.09;39.78;101758.44;5074094;28;20123;-67
2021/10/07 10:09:14;;;;;;;20.80;8.88;;;;;;;10.08;40.15;101762.06;5073632;28;20157;-67
2021/10/07 10:11:43;;;;;;;27.30;9.48;;;;;;;10.10;39.49;101759.25;5073742;28;20048;-67
2021/10/07 10:14:09;;;;;;;19.70;9.35;;;;;;;10.12;39.90;101754.59;5055749;28;20040;-67
2021/10/07 10:16:38;;;;;;;22.52;9.00;;;;;;;10.12;40.10;101747.47;5073702;28;20036;-67
2021/10/07 10:19:06;;;;;;;15.75;8.98;;;;;;;10.13;40.67;101741.16;5073547;28;20040;-67
2021/10/07 10:21:35;;;;;;;13.68;9.00;;;;;;;10.11;40.37;101732.56;5072104;28;20569;-68
2021/10/07 10:24:03;;;;;;;23.13;9.35;;;;;;;10.12;39.84;101733.41;5073431;28;20052;-67
2021/10/07 10:26:29;;;;;;;18.63;9.82;;;;;;;10.13;40.02;101727.91;5072055;28;20049;-67
2021/10/07 10:28:55;;;;;;;18.95;9.98;;;;;;;10.11;39.57;101718.47;5073442;28;20555;-67
2021/10/07 10:31:33;;;;;;;15.77;9.85;;;;;;;10.12;40.10;101723.63;5072030;28;20029;-67
2021/10/07 10:34:11;;;;;;;16.45;9.80;;;;;;;10.10;40.10;101716.84;5073309;28;20701;-67
2021/10/07 10:36:44;;;;;;;18.02;10.30;;;;;;;10.12;40.03;101715.66;5071736;28;20458;-68
2021/10/07 10:39:18;;;;;;;17.65;9.65;;;;;;;10.13;39.26;101713.84;5073076;28;20044;-67
2021/10/07 10:41:56;;;;;;;16.40;9.13;;;;;;;10.18;39.60;101720.25;5073220;28;20041;-67
2021/10/07 10:44:28;;;;;;;16.15;9.23;;;;;;;10.23;39.77;101717.06;5073530;28;20544;-66
2021/10/07 10:47:05;;;;;;;20.40;9.35;;;;;;;10.23;39.46;101723.22;5072818;28;20121;-67
2021/10/07 10:49:41;;;;;;;19.70;9.88;;;;;;;10.24;38.78;101716.06;5073215;28;20094;-67
2021/10/07 10:52:14;;;;;;;19.05;9.75;;;;;;;10.26;38.85;101714.06;5072934;28;20040;-68
2021/10/07 10:54:51;;;;;;;19.02;9.73;;;;;;;10.29;38.85;101712.91;5071758;28;20045;-67
2021/10/07 10:57:27;;;;;;;16.17;9.27;;;;;;;10.31;38.37;101709.06;5073014;28;20055;-68
2021/10/07 11:00:08;;;;;;;19.55;9.20;;;;;;;10.33;37.79;101703.63;5072689;28;20044;-67
2021/10/07 11:02:36;;;;;;;16.73;10.13;;;;;;;10.31;38.06;101702.97;5051013;28;20052;-67
2021/10/07 11:05:12;;;;;;;18.92;10.55;;;;;;;10.37;38.51;101707.53;5052803;28;20045;-67
2021/10/07 11:07:39;;;;;;;24.63;10.23;;;;;;;10.36;39.11;101704.06;5067341;28;20072;-67
2021/10/07 11:10:27;;;;;;;22.98;10.15;;;;;;;10.36;39.22;101703.25;5038321;28;20096;-67
2021/10/07 11:12:57;;;;;;;19.13;10.60;;;;;;;10.35;39.27;101713.03;5072872;28;20052;-67
2021/10/07 11:15:24;;;;;;;;;;;;;;;10.34;39.21;101700.75;5071247;28;20399;-67
2021/10/07 11:17:52;;;;;;;17.60;9.73;;;;;;;10.33;39.07;101704.44;5070905;28;20313;-68
2021/10/07 11:20:27;;;;;;;18.40;9.43;;;;;;;10.35;39.07;101696.28;5072297;28;20480;-67
2021/10/07 11:23:19;;;;;;;22.30;10.20;;;;;;;10.36;38.29;101692.66;5071775;28;20041;-67
2021/10/07 11:25:48;;;;;;;16.30;9.73;;;;;;;10.38;38.89;101696.78;5072231;28;20495;-67
2021/10/07 11:28:17;;;;;;;20.52;9.77;;;;;;;10.40;38.06;101697.41;5070618;28;20422;-67
2021/10/07 11:30:45;;;;;;;18.80;10.18;;;;;;;10.41;38.56;101685.81;5054541;28;20040;-66